Trelew/Rawson, Argentina
Current Conditions -  °F | °C
As of 12:00 PM on Saturday 25 Oct 2014 (Local Time) from SAVC Reporting Station
Clear Clear  
Wind Chill: 24°   Ceiling: Unl
Heat Index: 24°   Visibility: 6mi
Dew Point:   Wind: 16mph
Humidity: 21%   Direction: 290°WNW
Pressure: 29.68"   Gusts: NA
Location:  43.2°S, 65.27°W
Report Text: SAVC 251500Z 29014KT CAVOK 24/00 Q1005
Loading
Personal Weather Stations






























Interactive Weather Map
Tropical Storm Tracking
New forecast layout! Learn more

10-Day Weather Forecast

Advertisements
Track Severe Weather on mobile